EZY47LC EGPH-LPPT
Flight info
| Callsign | EZY47LC |
|---|---|
| Flight time | 2h 47m |
| Altitude | 36000 |
| Route | GOSAM DCT TRN DCT BLACA DCT DEGOS/M079F360 DCT LASNO T9 BEGAS/N0450F370 DCT PINEK DCT PRT DCT MANIK DCT ABRIL DCT XAMAX |
| Aircraft | A320/M-SDE3FGHIRWY/LB1 |
Departure
| Time | 2026-05-07 14:51 |
|---|---|
| Airport | Edinburgh Airport (EGPH) |
Arrival
| Time | 2026-05-07 17:38 |
|---|---|
| Airport | Lisbon Humberto Delgado Airport (LPPT) |
| Time | Latitude | Longitude | Altitude | Speed | Heading |
|---|---|---|---|---|---|
| 2026-05-07 13:48 | 55.94848 | -3.35872 | 117 ft | 0 kts | 207° |
| 2026-05-07 14:41 | 55.94849 | -3.35871 | 116 ft | 2 kts | 207° |
| 2026-05-07 14:41 | 55.94871 | -3.35849 | 112 ft | 4 kts | 213° |
| 2026-05-07 14:42 | 55.94893 | -3.35821 | 112 ft | 4 kts | 227° |
| 2026-05-07 14:42 | 55.94906 | -3.35783 | 113 ft | 4 kts | 274° |
| 2026-05-07 14:42 | 55.94905 | -3.35768 | 112 ft | 0 kts | 298° |
| 2026-05-07 14:46 | 55.94914 | -3.35799 | 112 ft | 7 kts | 298° |
| 2026-05-07 14:47 | 55.94943 | -3.35856 | 114 ft | 8 kts | 328° |
| 2026-05-07 14:47 | 55.95014 | -3.35830 | 116 ft | 13 kts | 30° |
| 2026-05-07 14:47 | 55.95090 | -3.35788 | 115 ft | 13 kts | 335° |
| 2026-05-07 14:47 | 55.95139 | -3.35915 | 115 ft | 13 kts | 314° |
| 2026-05-07 14:48 | 55.95216 | -3.35986 | 114 ft | 13 kts | 360° |
| 2026-05-07 14:48 | 55.95283 | -3.35841 | 111 ft | 17 kts | 59° |
| 2026-05-07 14:48 | 55.95334 | -3.35688 | 115 ft | 16 kts | 58° |
| 2026-05-07 14:48 | 55.95394 | -3.35514 | 115 ft | 18 kts | 59° |
| 2026-05-07 14:49 | 55.95454 | -3.35398 | 113 ft | 9 kts | 1° |
| 2026-05-07 14:49 | 55.95513 | -3.35455 | 114 ft | 11 kts | 327° |
| 2026-05-07 14:49 | 55.95572 | -3.35547 | 113 ft | 11 kts | 275° |
| 2026-05-07 14:49 | 55.95554 | -3.35617 | 112 ft | 0 kts | 238° |
| 2026-05-07 14:50 | 55.95539 | -3.35658 | 113 ft | 24 kts | 237° |
| 2026-05-07 14:50 | 55.95318 | -3.36305 | 110 ft | 95 kts | 239° |
| 2026-05-07 14:50 | 55.94878 | -3.37607 | 118 ft | 146 kts | 236° |
| 2026-05-07 14:50 | 55.94326 | -3.39212 | 693 ft | 153 kts | 235° |
| 2026-05-07 14:51 | 55.93774 | -3.40792 | 1540 ft | 151 kts | 235° |
| 2026-05-07 14:51 | 55.93185 | -3.42496 | 1946 ft | 172 kts | 235° |
| 2026-05-07 14:51 | 55.92509 | -3.44434 | 2291 ft | 197 kts | 235° |
| 2026-05-07 14:51 | 55.91738 | -3.46654 | 2717 ft | 223 kts | 235° |
| 2026-05-07 14:52 | 55.90887 | -3.49115 | 3330 ft | 239 kts | 237° |
| 2026-05-07 14:52 | 55.90313 | -3.51937 | 4228 ft | 249 kts | 256° |
| 2026-05-07 14:52 | 55.90006 | -3.54998 | 5199 ft | 252 kts | 256° |
| 2026-05-07 14:52 | 55.89703 | -3.58092 | 6154 ft | 256 kts | 257° |
| 2026-05-07 14:53 | 55.89397 | -3.61230 | 7101 ft | 258 kts | 257° |
| 2026-05-07 14:53 | 55.89080 | -3.64447 | 8007 ft | 262 kts | 257° |
| 2026-05-07 14:53 | 55.88765 | -3.67617 | 8879 ft | 265 kts | 257° |
| 2026-05-07 14:53 | 55.88439 | -3.70867 | 9786 ft | 268 kts | 257° |
| 2026-05-07 14:54 | 55.88101 | -3.74233 | 10369 ft | 282 kts | 257° |
| 2026-05-07 14:54 | 55.87777 | -3.77433 | 10590 ft | 303 kts | 257° |
| 2026-05-07 14:54 | 55.87389 | -3.81273 | 10803 ft | 327 kts | 257° |
| 2026-05-07 14:54 | 55.87006 | -3.85120 | 11208 ft | 339 kts | 257° |
| 2026-05-07 14:55 | 55.86588 | -3.89359 | 11894 ft | 344 kts | 258° |
| 2026-05-07 14:55 | 55.86179 | -3.93518 | 12615 ft | 348 kts | 257° |
| 2026-05-07 14:55 | 55.85748 | -3.97837 | 13389 ft | 351 kts | 257° |
| 2026-05-07 14:55 | 55.85321 | -4.02078 | 14061 ft | 354 kts | 257° |
| 2026-05-07 14:56 | 55.84876 | -4.06466 | 14672 ft | 359 kts | 257° |
| 2026-05-07 14:56 | 55.84269 | -4.10781 | 15246 ft | 360 kts | 245° |
| 2026-05-07 14:56 | 55.82966 | -4.14565 | 15819 ft | 361 kts | 227° |
| 2026-05-07 14:56 | 55.81040 | -4.17442 | 16400 ft | 364 kts | 214° |
| 2026-05-07 14:57 | 55.78964 | -4.19967 | 16977 ft | 368 kts | 214° |
| 2026-05-07 14:57 | 55.76816 | -4.22583 | 17561 ft | 372 kts | 214° |
| 2026-05-07 14:57 | 55.74683 | -4.25209 | 18135 ft | 375 kts | 214° |
| 2026-05-07 14:57 | 55.72531 | -4.27876 | 18635 ft | 379 kts | 214° |
| 2026-05-07 14:58 | 55.70370 | -4.30564 | 19131 ft | 381 kts | 214° |
| 2026-05-07 14:58 | 55.68190 | -4.33275 | 19636 ft | 384 kts | 214° |
| 2026-05-07 14:58 | 55.66000 | -4.35994 | 20149 ft | 386 kts | 214° |
| 2026-05-07 14:58 | 55.63795 | -4.38725 | 20653 ft | 388 kts | 214° |
| 2026-05-07 14:59 | 55.62328 | -4.40541 | 20987 ft | 389 kts | 214° |
| 2026-05-07 14:59 | 55.60108 | -4.43286 | 21479 ft | 391 kts | 214° |
| 2026-05-07 14:59 | 55.57864 | -4.46050 | 21954 ft | 394 kts | 214° |
| 2026-05-07 14:59 | 55.55606 | -4.48821 | 22429 ft | 396 kts | 214° |
| 2026-05-07 15:00 | 55.53339 | -4.51596 | 22892 ft | 398 kts | 214° |
| 2026-05-07 15:00 | 55.51062 | -4.54384 | 23341 ft | 400 kts | 214° |
| 2026-05-07 15:00 | 55.48770 | -4.57190 | 23737 ft | 403 kts | 214° |
| 2026-05-07 15:00 | 55.46460 | -4.60016 | 24095 ft | 405 kts | 214° |
| 2026-05-07 15:01 | 55.44138 | -4.62851 | 24469 ft | 407 kts | 214° |
| 2026-05-07 15:01 | 55.41806 | -4.65691 | 24824 ft | 409 kts | 214° |
| 2026-05-07 15:01 | 55.39460 | -4.68543 | 25184 ft | 411 kts | 214° |
| 2026-05-07 15:01 | 55.37096 | -4.71409 | 25534 ft | 413 kts | 213° |
| 2026-05-07 15:02 | 55.34730 | -4.74271 | 25877 ft | 415 kts | 213° |
| 2026-05-07 15:02 | 55.32346 | -4.77152 | 26211 ft | 417 kts | 213° |
| 2026-05-07 15:02 | 55.29841 | -4.79716 | 26522 ft | 418 kts | 206° |
| 2026-05-07 15:02 | 55.27234 | -4.82020 | 26840 ft | 420 kts | 206° |
| 2026-05-07 15:03 | 55.24618 | -4.84320 | 27146 ft | 422 kts | 206° |
| 2026-05-07 15:03 | 55.21990 | -4.86619 | 27456 ft | 424 kts | 206° |
| 2026-05-07 15:03 | 55.19345 | -4.88925 | 27747 ft | 425 kts | 206° |
| 2026-05-07 15:03 | 55.16694 | -4.91241 | 28096 ft | 426 kts | 206° |
| 2026-05-07 15:04 | 55.14047 | -4.93562 | 28531 ft | 425 kts | 206° |
| 2026-05-07 15:04 | 55.11407 | -4.95874 | 28969 ft | 424 kts | 205° |
| 2026-05-07 15:04 | 55.08779 | -4.98166 | 29411 ft | 423 kts | 205° |
| 2026-05-07 15:04 | 55.06148 | -5.00455 | 29837 ft | 422 kts | 205° |
| 2026-05-07 15:05 | 55.03524 | -5.02736 | 30235 ft | 420 kts | 205° |
| 2026-05-07 15:05 | 55.00912 | -5.05001 | 30605 ft | 419 kts | 205° |
| 2026-05-07 15:05 | 54.98301 | -5.07262 | 30967 ft | 418 kts | 205° |
| 2026-05-07 15:05 | 54.95701 | -5.09509 | 31336 ft | 418 kts | 205° |
| 2026-05-07 15:06 | 54.93101 | -5.11754 | 31689 ft | 417 kts | 205° |
| 2026-05-07 15:06 | 54.90561 | -5.14201 | 32047 ft | 418 kts | 212° |
| 2026-05-07 15:06 | 54.88280 | -5.17351 | 32396 ft | 421 kts | 221° |
| 2026-05-07 15:06 | 54.86332 | -5.21150 | 32740 ft | 424 kts | 230° |
| 2026-05-07 15:07 | 54.84678 | -5.25406 | 33078 ft | 425 kts | 232° |
| 2026-05-07 15:07 | 54.83048 | -5.29668 | 33415 ft | 424 kts | 232° |
| 2026-05-07 15:07 | 54.81407 | -5.33922 | 33778 ft | 424 kts | 232° |
| 2026-05-07 15:07 | 54.79765 | -5.38156 | 34087 ft | 423 kts | 232° |
| 2026-05-07 15:08 | 54.78120 | -5.42385 | 34381 ft | 423 kts | 232° |
| 2026-05-07 15:08 | 54.76475 | -5.46610 | 34651 ft | 423 kts | 232° |
| 2026-05-07 15:08 | 54.74828 | -5.50840 | 34910 ft | 423 kts | 232° |
| 2026-05-07 15:08 | 54.73187 | -5.55053 | 35166 ft | 423 kts | 232° |
| 2026-05-07 15:09 | 54.71557 | -5.59241 | 35414 ft | 423 kts | 233° |
| 2026-05-07 15:09 | 54.69902 | -5.63495 | 35649 ft | 423 kts | 233° |
| 2026-05-07 15:09 | 54.68258 | -5.67711 | 35867 ft | 424 kts | 233° |
| 2026-05-07 15:09 | 54.66602 | -5.71934 | 35945 ft | 426 kts | 233° |
| 2026-05-07 15:10 | 54.63267 | -5.80421 | 35947 ft | 428 kts | 233° |
| 2026-05-07 15:10 | 54.59921 | -5.88918 | 35946 ft | 428 kts | 233° |
| 2026-05-07 15:11 | 54.56566 | -5.97401 | 35947 ft | 428 kts | 233° |
| 2026-05-07 15:11 | 54.53205 | -6.05872 | 35947 ft | 428 kts | 233° |
| 2026-05-07 15:12 | 54.49836 | -6.14324 | 35948 ft | 428 kts | 232° |
| 2026-05-07 15:12 | 54.46460 | -6.22760 | 35946 ft | 428 kts | 233° |
| 2026-05-07 15:13 | 54.43080 | -6.31197 | 35946 ft | 428 kts | 232° |
| 2026-05-07 15:13 | 54.39698 | -6.39598 | 35945 ft | 428 kts | 232° |
| 2026-05-07 15:14 | 54.36308 | -6.47991 | 35937 ft | 428 kts | 232° |
| 2026-05-07 15:14 | 54.32909 | -6.56387 | 35935 ft | 428 kts | 232° |
| 2026-05-07 15:15 | 54.29509 | -6.64764 | 35934 ft | 428 kts | 232° |
| 2026-05-07 15:15 | 54.26105 | -6.73110 | 35931 ft | 428 kts | 232° |
| 2026-05-07 15:16 | 54.22686 | -6.81442 | 35932 ft | 428 kts | 232° |
| 2026-05-07 15:16 | 54.18592 | -6.88670 | 35931 ft | 423 kts | 214° |
| 2026-05-07 15:17 | 54.13344 | -6.93007 | 35916 ft | 421 kts | 195° |
| 2026-05-07 15:17 | 54.07651 | -6.95413 | 35903 ft | 421 kts | 194° |
| 2026-05-07 15:18 | 54.01957 | -6.97805 | 35919 ft | 422 kts | 194° |
| 2026-05-07 15:18 | 53.96251 | -7.00219 | 35914 ft | 423 kts | 194° |
| 2026-05-07 15:19 | 53.90542 | -7.02617 | 35914 ft | 423 kts | 194° |
| 2026-05-07 15:19 | 53.84822 | -7.05017 | 35919 ft | 423 kts | 194° |
| 2026-05-07 15:20 | 53.79103 | -7.07408 | 35917 ft | 424 kts | 194° |
| 2026-05-07 15:20 | 53.73373 | -7.09793 | 35915 ft | 424 kts | 194° |
| 2026-05-07 15:21 | 53.67637 | -7.12180 | 35910 ft | 425 kts | 194° |
| 2026-05-07 15:21 | 53.61901 | -7.14561 | 35909 ft | 425 kts | 194° |
| 2026-05-07 15:22 | 53.56149 | -7.16928 | 35908 ft | 425 kts | 194° |
| 2026-05-07 15:22 | 53.50396 | -7.19287 | 35911 ft | 426 kts | 194° |
| 2026-05-07 15:23 | 53.44641 | -7.21645 | 35911 ft | 426 kts | 194° |
| 2026-05-07 15:23 | 53.38880 | -7.24008 | 35916 ft | 426 kts | 194° |
| 2026-05-07 15:24 | 53.33120 | -7.26374 | 35918 ft | 427 kts | 194° |
| 2026-05-07 15:24 | 53.27344 | -7.28726 | 35916 ft | 427 kts | 194° |
| 2026-05-07 15:25 | 53.21568 | -7.31068 | 35923 ft | 427 kts | 194° |
| 2026-05-07 15:25 | 53.15789 | -7.33412 | 35924 ft | 428 kts | 194° |
| 2026-05-07 15:26 | 53.10009 | -7.35750 | 35923 ft | 428 kts | 194° |
| 2026-05-07 15:26 | 53.04214 | -7.38081 | 35925 ft | 428 kts | 194° |
| 2026-05-07 15:27 | 52.98422 | -7.40407 | 35927 ft | 428 kts | 194° |
| 2026-05-07 15:27 | 52.92628 | -7.42727 | 35932 ft | 429 kts | 194° |
| 2026-05-07 15:28 | 52.86822 | -7.45041 | 35933 ft | 429 kts | 194° |
| 2026-05-07 15:28 | 52.81014 | -7.47350 | 35939 ft | 429 kts | 194° |
| 2026-05-07 15:29 | 52.75203 | -7.49653 | 35943 ft | 429 kts | 194° |
| 2026-05-07 15:29 | 52.69389 | -7.51960 | 35945 ft | 430 kts | 194° |
| 2026-05-07 15:30 | 52.63578 | -7.54262 | 35948 ft | 430 kts | 194° |
| 2026-05-07 15:30 | 52.57757 | -7.56555 | 35950 ft | 430 kts | 194° |
| 2026-05-07 15:31 | 52.51902 | -7.58859 | 35958 ft | 430 kts | 194° |
| 2026-05-07 15:31 | 52.46075 | -7.61150 | 35959 ft | 430 kts | 194° |
| 2026-05-07 15:32 | 52.40284 | -7.63413 | 35964 ft | 431 kts | 194° |
| 2026-05-07 15:32 | 52.34413 | -7.65691 | 35969 ft | 431 kts | 194° |
| 2026-05-07 15:33 | 52.28617 | -7.67948 | 35974 ft | 431 kts | 194° |
| 2026-05-07 15:33 | 52.22744 | -7.70227 | 35978 ft | 431 kts | 194° |
| 2026-05-07 15:34 | 52.16900 | -7.72485 | 35979 ft | 431 kts | 194° |
| 2026-05-07 15:34 | 52.11060 | -7.74733 | 35978 ft | 432 kts | 194° |
| 2026-05-07 15:35 | 52.05214 | -7.76978 | 35976 ft | 432 kts | 194° |
| 2026-05-07 15:35 | 51.99368 | -7.79224 | 35980 ft | 432 kts | 194° |
| 2026-05-07 15:36 | 51.93510 | -7.81471 | 35980 ft | 432 kts | 194° |
| 2026-05-07 15:36 | 51.87654 | -7.83700 | 35984 ft | 433 kts | 194° |
| 2026-05-07 15:37 | 51.82782 | -7.85555 | 35982 ft | 433 kts | 194° |
| 2026-05-07 15:37 | 51.76911 | -7.87786 | 35986 ft | 433 kts | 194° |
| 2026-05-07 15:38 | 51.71040 | -7.89996 | 35986 ft | 434 kts | 194° |
| 2026-05-07 15:38 | 51.65165 | -7.92213 | 35989 ft | 434 kts | 194° |
| 2026-05-07 15:39 | 51.59280 | -7.94437 | 35992 ft | 434 kts | 194° |
| 2026-05-07 15:39 | 51.53395 | -7.96646 | 35995 ft | 435 kts | 194° |
| 2026-05-07 15:40 | 51.47507 | -7.98847 | 35994 ft | 435 kts | 194° |
| 2026-05-07 15:40 | 51.41604 | -8.01053 | 35998 ft | 435 kts | 194° |
| 2026-05-07 15:41 | 51.35706 | -8.03256 | 35997 ft | 436 kts | 194° |
| 2026-05-07 15:41 | 51.29797 | -8.05453 | 35998 ft | 436 kts | 194° |
| 2026-05-07 15:42 | 51.23876 | -8.07639 | 35994 ft | 437 kts | 194° |
| 2026-05-07 15:42 | 51.17948 | -8.09829 | 35999 ft | 437 kts | 194° |
| 2026-05-07 15:43 | 51.12023 | -8.12025 | 36001 ft | 438 kts | 194° |
| 2026-05-07 15:43 | 51.06090 | -8.14213 | 36003 ft | 438 kts | 194° |
| 2026-05-07 15:44 | 51.00140 | -8.16384 | 36005 ft | 439 kts | 194° |
| 2026-05-07 15:44 | 50.94184 | -8.18558 | 36003 ft | 439 kts | 194° |
| 2026-05-07 15:45 | 50.88230 | -8.20740 | 36005 ft | 440 kts | 194° |
| 2026-05-07 15:45 | 50.82259 | -8.22910 | 36002 ft | 440 kts | 194° |
| 2026-05-07 15:46 | 50.73296 | -8.26162 | 36008 ft | 441 kts | 194° |
| 2026-05-07 15:47 | 50.67315 | -8.28326 | 36007 ft | 442 kts | 194° |
| 2026-05-07 15:47 | 50.61317 | -8.30481 | 36009 ft | 442 kts | 194° |
| 2026-05-07 15:48 | 50.55325 | -8.32648 | 36009 ft | 442 kts | 194° |
| 2026-05-07 15:48 | 50.49314 | -8.34803 | 36008 ft | 443 kts | 194° |
| 2026-05-07 15:49 | 50.43299 | -8.36950 | 36009 ft | 443 kts | 194° |
| 2026-05-07 15:49 | 50.37284 | -8.39095 | 36007 ft | 444 kts | 194° |
| 2026-05-07 15:50 | 50.31263 | -8.41244 | 36009 ft | 444 kts | 194° |
| 2026-05-07 15:50 | 50.25224 | -8.43377 | 36009 ft | 445 kts | 194° |
| 2026-05-07 15:51 | 50.19180 | -8.45513 | 36012 ft | 445 kts | 194° |
| 2026-05-07 15:51 | 50.13140 | -8.47659 | 36014 ft | 446 kts | 194° |
| 2026-05-07 15:52 | 50.07082 | -8.49794 | 36013 ft | 446 kts | 194° |
| 2026-05-07 15:52 | 50.01020 | -8.51912 | 36013 ft | 447 kts | 194° |
| 2026-05-07 15:53 | 49.94954 | -8.54034 | 36015 ft | 447 kts | 194° |
| 2026-05-07 15:53 | 49.88886 | -8.56153 | 36011 ft | 447 kts | 194° |
| 2026-05-07 15:54 | 49.82804 | -8.58277 | 36016 ft | 448 kts | 194° |
| 2026-05-07 15:54 | 49.76717 | -8.60393 | 36014 ft | 448 kts | 194° |
| 2026-05-07 15:55 | 49.70626 | -8.62515 | 36015 ft | 449 kts | 194° |
| 2026-05-07 15:55 | 49.64540 | -8.64625 | 36016 ft | 449 kts | 194° |
| 2026-05-07 15:56 | 49.58437 | -8.66730 | 36013 ft | 449 kts | 194° |
| 2026-05-07 15:56 | 49.52336 | -8.68825 | 36013 ft | 450 kts | 194° |
| 2026-05-07 15:57 | 49.46221 | -8.70917 | 36016 ft | 450 kts | 194° |
| 2026-05-07 15:57 | 49.40109 | -8.73000 | 36010 ft | 450 kts | 194° |
| 2026-05-07 15:58 | 49.33986 | -8.75100 | 36019 ft | 451 kts | 194° |
| 2026-05-07 15:58 | 49.27867 | -8.77184 | 36014 ft | 451 kts | 194° |
| 2026-05-07 15:59 | 49.21735 | -8.79268 | 36016 ft | 451 kts | 194° |
| 2026-05-07 15:59 | 49.15599 | -8.81349 | 36013 ft | 451 kts | 194° |
| 2026-05-07 16:00 | 49.09467 | -8.83415 | 36014 ft | 452 kts | 194° |
| 2026-05-07 16:00 | 49.03332 | -8.85476 | 36014 ft | 452 kts | 194° |
| 2026-05-07 16:01 | 48.97189 | -8.87546 | 36016 ft | 452 kts | 194° |
| 2026-05-07 16:01 | 48.91009 | -8.89620 | 36018 ft | 452 kts | 194° |
| 2026-05-07 16:02 | 48.84903 | -8.91664 | 36014 ft | 452 kts | 195° |
| 2026-05-07 16:02 | 48.78722 | -8.93731 | 36016 ft | 452 kts | 195° |
| 2026-05-07 16:03 | 48.72614 | -8.95765 | 36014 ft | 452 kts | 195° |
| 2026-05-07 16:03 | 48.66432 | -8.97826 | 36016 ft | 452 kts | 195° |
| 2026-05-07 16:04 | 48.60263 | -8.99753 | 36012 ft | 454 kts | 189° |
| 2026-05-07 16:04 | 48.53929 | -9.00009 | 36008 ft | 457 kts | 182° |
| 2026-05-07 16:05 | 48.47566 | -8.99990 | 36007 ft | 457 kts | 183° |
| 2026-05-07 16:05 | 48.41247 | -8.99996 | 36016 ft | 457 kts | 183° |
| 2026-05-07 16:06 | 48.34848 | -9.00000 | 36006 ft | 457 kts | 183° |
| 2026-05-07 16:06 | 48.28526 | -9.00003 | 36004 ft | 457 kts | 183° |
| 2026-05-07 16:07 | 48.22126 | -9.00002 | 36007 ft | 457 kts | 183° |
| 2026-05-07 16:07 | 48.15771 | -9.00006 | 36008 ft | 457 kts | 183° |
| 2026-05-07 16:08 | 48.09446 | -9.00019 | 36007 ft | 457 kts | 183° |
| 2026-05-07 16:08 | 48.03050 | -9.00009 | 36010 ft | 457 kts | 183° |
| 2026-05-07 16:09 | 47.96692 | -9.00009 | 36008 ft | 457 kts | 183° |
| 2026-05-07 16:09 | 47.90378 | -9.00005 | 36007 ft | 456 kts | 183° |
| 2026-05-07 16:10 | 47.83987 | -9.00005 | 36004 ft | 456 kts | 183° |
| 2026-05-07 16:10 | 47.77642 | -9.00009 | 36002 ft | 456 kts | 184° |
| 2026-05-07 16:11 | 47.71289 | -9.00010 | 36003 ft | 456 kts | 183° |
| 2026-05-07 16:11 | 47.64946 | -9.00007 | 36003 ft | 456 kts | 183° |
| 2026-05-07 16:12 | 47.58595 | -9.00002 | 36004 ft | 456 kts | 183° |
| 2026-05-07 16:12 | 47.52254 | -9.00008 | 36001 ft | 456 kts | 183° |
| 2026-05-07 16:13 | 47.45905 | -8.99999 | 36001 ft | 456 kts | 183° |
| 2026-05-07 16:13 | 47.39556 | -9.00003 | 35996 ft | 456 kts | 183° |
| 2026-05-07 16:14 | 47.33216 | -9.00003 | 35996 ft | 456 kts | 183° |
| 2026-05-07 16:14 | 47.26875 | -8.99998 | 35996 ft | 456 kts | 183° |
| 2026-05-07 16:15 | 47.20524 | -8.99997 | 35997 ft | 456 kts | 183° |
| 2026-05-07 16:15 | 47.15246 | -9.00006 | 35995 ft | 456 kts | 183° |
| 2026-05-07 16:16 | 47.08902 | -9.00005 | 35998 ft | 456 kts | 183° |
| 2026-05-07 16:16 | 47.02556 | -9.00002 | 35995 ft | 456 kts | 183° |
| 2026-05-07 16:17 | 46.96200 | -9.00005 | 35993 ft | 456 kts | 183° |
| 2026-05-07 16:17 | 46.89842 | -9.00013 | 35986 ft | 457 kts | 183° |
| 2026-05-07 16:18 | 46.83493 | -9.00021 | 35982 ft | 457 kts | 183° |
| 2026-05-07 16:18 | 46.77132 | -9.00007 | 35990 ft | 457 kts | 183° |
| 2026-05-07 16:19 | 46.70776 | -8.99994 | 35979 ft | 457 kts | 183° |
| 2026-05-07 16:19 | 46.64419 | -9.00001 | 35985 ft | 457 kts | 184° |
| 2026-05-07 16:20 | 46.58050 | -9.00012 | 35986 ft | 457 kts | 183° |
| 2026-05-07 16:20 | 46.51679 | -9.00012 | 35980 ft | 458 kts | 183° |
| 2026-05-07 16:21 | 46.45313 | -9.00004 | 35981 ft | 458 kts | 183° |
| 2026-05-07 16:21 | 46.38940 | -9.00013 | 35981 ft | 458 kts | 183° |
| 2026-05-07 16:22 | 46.32574 | -9.00019 | 35982 ft | 458 kts | 183° |
| 2026-05-07 16:22 | 46.26201 | -9.00018 | 35980 ft | 458 kts | 183° |
| 2026-05-07 16:23 | 46.19836 | -9.00005 | 35982 ft | 458 kts | 183° |
| 2026-05-07 16:23 | 46.13463 | -9.00002 | 35981 ft | 458 kts | 183° |
| 2026-05-07 16:24 | 46.07101 | -9.00013 | 35974 ft | 457 kts | 183° |
| 2026-05-07 16:24 | 46.00730 | -9.00012 | 35975 ft | 457 kts | 183° |
| 2026-05-07 16:25 | 45.94362 | -9.00015 | 35970 ft | 457 kts | 183° |
| 2026-05-07 16:25 | 45.88001 | -9.00015 | 35969 ft | 457 kts | 183° |
| 2026-05-07 16:26 | 45.81642 | -9.00012 | 35974 ft | 457 kts | 183° |
| 2026-05-07 16:26 | 45.75275 | -9.00011 | 35971 ft | 457 kts | 183° |
| 2026-05-07 16:27 | 45.68909 | -9.00019 | 35971 ft | 457 kts | 183° |
| 2026-05-07 16:27 | 45.62553 | -9.00011 | 35965 ft | 457 kts | 183° |
| 2026-05-07 16:28 | 45.56190 | -9.00005 | 35967 ft | 457 kts | 183° |
| 2026-05-07 16:28 | 45.49839 | -9.00009 | 35963 ft | 457 kts | 183° |
| 2026-05-07 16:29 | 45.43481 | -9.00011 | 35959 ft | 456 kts | 183° |
| 2026-05-07 16:29 | 45.37135 | -9.00015 | 35955 ft | 456 kts | 183° |
| 2026-05-07 16:30 | 45.30783 | -9.00006 | 35958 ft | 456 kts | 183° |
| 2026-05-07 16:30 | 45.24398 | -9.00007 | 35953 ft | 456 kts | 183° |
| 2026-05-07 16:31 | 45.18094 | -9.00010 | 35952 ft | 456 kts | 183° |
| 2026-05-07 16:31 | 45.11713 | -9.00007 | 35948 ft | 456 kts | 183° |
| 2026-05-07 16:32 | 45.05370 | -9.00003 | 35950 ft | 455 kts | 183° |
| 2026-05-07 16:32 | 44.99035 | -8.99883 | 35945 ft | 456 kts | 180° |
| 2026-05-07 16:33 | 44.92700 | -8.99233 | 36107 ft | 457 kts | 177° |
| 2026-05-07 16:33 | 44.89540 | -8.98756 | 36287 ft | 456 kts | 176° |
| 2026-05-07 16:33 | 44.86386 | -8.98256 | 36467 ft | 456 kts | 176° |
| 2026-05-07 16:33 | 44.83232 | -8.97772 | 36648 ft | 455 kts | 177° |
| 2026-05-07 16:34 | 44.80079 | -8.97314 | 36849 ft | 455 kts | 177° |
| 2026-05-07 16:34 | 44.73774 | -8.96466 | 36930 ft | 455 kts | 178° |
| 2026-05-07 16:35 | 44.67466 | -8.95647 | 36922 ft | 455 kts | 178° |
| 2026-05-07 16:35 | 44.61169 | -8.94811 | 36928 ft | 455 kts | 177° |
| 2026-05-07 16:36 | 44.54867 | -8.93961 | 36926 ft | 455 kts | 177° |
| 2026-05-07 16:36 | 44.48574 | -8.93128 | 36923 ft | 455 kts | 177° |
| 2026-05-07 16:37 | 44.42268 | -8.92306 | 36921 ft | 455 kts | 177° |
| 2026-05-07 16:37 | 44.35969 | -8.91482 | 36928 ft | 455 kts | 177° |
| 2026-05-07 16:38 | 44.29658 | -8.90648 | 36929 ft | 455 kts | 177° |
| 2026-05-07 16:38 | 44.23357 | -8.89819 | 36924 ft | 455 kts | 177° |
| 2026-05-07 16:39 | 44.17048 | -8.88993 | 36930 ft | 455 kts | 177° |
| 2026-05-07 16:39 | 44.10750 | -8.88164 | 36923 ft | 455 kts | 177° |
| 2026-05-07 16:40 | 44.04450 | -8.87344 | 36926 ft | 455 kts | 177° |
| 2026-05-07 16:40 | 43.98149 | -8.86529 | 36924 ft | 455 kts | 177° |
| 2026-05-07 16:41 | 43.91836 | -8.85703 | 36925 ft | 455 kts | 177° |
| 2026-05-07 16:41 | 43.85540 | -8.84883 | 36922 ft | 455 kts | 177° |
| 2026-05-07 16:42 | 43.79241 | -8.84071 | 36915 ft | 455 kts | 177° |
| 2026-05-07 16:42 | 43.72940 | -8.83258 | 36914 ft | 454 kts | 177° |
| 2026-05-07 16:43 | 43.66637 | -8.82461 | 36915 ft | 454 kts | 177° |
| 2026-05-07 16:43 | 43.60345 | -8.81655 | 36914 ft | 454 kts | 177° |
| 2026-05-07 16:44 | 43.54043 | -8.80842 | 36915 ft | 454 kts | 177° |
| 2026-05-07 16:44 | 43.47750 | -8.80036 | 36910 ft | 454 kts | 177° |
| 2026-05-07 16:45 | 43.41448 | -8.79231 | 36909 ft | 454 kts | 177° |
| 2026-05-07 16:45 | 43.35155 | -8.78422 | 36908 ft | 454 kts | 177° |
| 2026-05-07 16:46 | 43.28855 | -8.77613 | 36904 ft | 454 kts | 177° |
| 2026-05-07 16:46 | 43.22564 | -8.76818 | 36904 ft | 454 kts | 178° |
| 2026-05-07 16:47 | 43.16274 | -8.76026 | 36903 ft | 454 kts | 178° |
| 2026-05-07 16:47 | 43.09977 | -8.75223 | 36901 ft | 454 kts | 178° |
| 2026-05-07 16:48 | 43.03681 | -8.74430 | 36901 ft | 454 kts | 178° |
| 2026-05-07 16:48 | 42.97391 | -8.73640 | 36902 ft | 454 kts | 178° |
| 2026-05-07 16:49 | 42.91102 | -8.72851 | 36906 ft | 454 kts | 178° |
| 2026-05-07 16:49 | 42.84820 | -8.72066 | 36899 ft | 454 kts | 178° |
| 2026-05-07 16:50 | 42.78539 | -8.71276 | 36904 ft | 453 kts | 178° |
| 2026-05-07 16:50 | 42.72253 | -8.70483 | 36898 ft | 453 kts | 178° |
| 2026-05-07 16:51 | 42.65976 | -8.69700 | 36897 ft | 453 kts | 178° |
| 2026-05-07 16:51 | 42.59700 | -8.68926 | 36894 ft | 453 kts | 178° |
| 2026-05-07 16:52 | 42.53423 | -8.68152 | 36898 ft | 452 kts | 178° |
| 2026-05-07 16:52 | 42.47156 | -8.67376 | 36900 ft | 452 kts | 178° |
| 2026-05-07 16:53 | 42.40892 | -8.66595 | 36904 ft | 452 kts | 178° |
| 2026-05-07 16:53 | 42.35682 | -8.65944 | 36905 ft | 452 kts | 178° |
| 2026-05-07 16:54 | 42.29420 | -8.65175 | 36903 ft | 452 kts | 178° |
| 2026-05-07 16:54 | 42.23153 | -8.64416 | 36905 ft | 452 kts | 178° |
| 2026-05-07 16:55 | 42.16895 | -8.63654 | 36901 ft | 452 kts | 178° |
| 2026-05-07 16:55 | 42.10631 | -8.62886 | 36901 ft | 452 kts | 178° |
| 2026-05-07 16:56 | 42.04366 | -8.62116 | 36901 ft | 452 kts | 177° |
| 2026-05-07 16:56 | 41.94965 | -8.60963 | 36898 ft | 452 kts | 178° |
| 2026-05-07 16:57 | 41.88692 | -8.60210 | 36893 ft | 452 kts | 178° |
| 2026-05-07 16:57 | 41.82406 | -8.60191 | 36898 ft | 447 kts | 189° |
| 2026-05-07 16:58 | 41.76250 | -8.61156 | 36896 ft | 448 kts | 189° |
| 2026-05-07 16:58 | 41.70041 | -8.61811 | 36901 ft | 451 kts | 181° |
| 2026-05-07 16:59 | 41.63735 | -8.61514 | 36897 ft | 451 kts | 181° |
| 2026-05-07 16:59 | 41.57506 | -8.61206 | 36898 ft | 451 kts | 180° |
| 2026-05-07 17:00 | 41.51234 | -8.60882 | 36912 ft | 451 kts | 180° |
| 2026-05-07 17:00 | 41.44927 | -8.60557 | 36917 ft | 451 kts | 180° |
| 2026-05-07 17:01 | 41.38658 | -8.60245 | 36920 ft | 451 kts | 181° |
| 2026-05-07 17:01 | 41.32428 | -8.59937 | 36931 ft | 451 kts | 181° |
| 2026-05-07 17:02 | 41.26162 | -8.59624 | 36929 ft | 451 kts | 181° |
| 2026-05-07 17:02 | 41.19853 | -8.59313 | 36932 ft | 451 kts | 181° |
| 2026-05-07 17:03 | 41.13592 | -8.58998 | 36927 ft | 451 kts | 181° |
| 2026-05-07 17:03 | 41.07322 | -8.58689 | 36925 ft | 451 kts | 181° |
| 2026-05-07 17:04 | 41.01061 | -8.58380 | 36930 ft | 451 kts | 181° |
| 2026-05-07 17:04 | 40.94793 | -8.58073 | 36932 ft | 450 kts | 181° |
| 2026-05-07 17:05 | 40.88542 | -8.57769 | 36919 ft | 450 kts | 181° |
| 2026-05-07 17:05 | 40.82287 | -8.57464 | 36917 ft | 449 kts | 181° |
| 2026-05-07 17:06 | 40.76037 | -8.57151 | 36914 ft | 449 kts | 181° |
| 2026-05-07 17:06 | 40.69792 | -8.56845 | 36905 ft | 449 kts | 181° |
| 2026-05-07 17:07 | 40.63539 | -8.56534 | 36904 ft | 450 kts | 181° |
| 2026-05-07 17:07 | 40.57280 | -8.56239 | 36903 ft | 450 kts | 181° |
| 2026-05-07 17:08 | 40.51031 | -8.55936 | 36905 ft | 450 kts | 181° |
| 2026-05-07 17:08 | 40.44772 | -8.55630 | 36904 ft | 450 kts | 181° |
| 2026-05-07 17:09 | 40.38522 | -8.55324 | 36753 ft | 450 kts | 182° |
| 2026-05-07 17:09 | 40.35400 | -8.55172 | 36484 ft | 448 kts | 182° |
| 2026-05-07 17:09 | 40.32284 | -8.55023 | 36004 ft | 448 kts | 182° |
| 2026-05-07 17:10 | 40.29158 | -8.54876 | 35180 ft | 450 kts | 182° |
| 2026-05-07 17:10 | 40.26019 | -8.54724 | 34291 ft | 450 kts | 182° |
| 2026-05-07 17:10 | 40.22929 | -8.54570 | 33383 ft | 440 kts | 182° |
| 2026-05-07 17:10 | 40.19912 | -8.54415 | 32473 ft | 429 kts | 181° |
| 2026-05-07 17:11 | 40.16926 | -8.54269 | 31514 ft | 431 kts | 181° |
| 2026-05-07 17:11 | 40.13915 | -8.54127 | 30646 ft | 430 kts | 181° |
| 2026-05-07 17:11 | 40.10975 | -8.53987 | 29874 ft | 417 kts | 181° |
| 2026-05-07 17:11 | 40.08111 | -8.53852 | 28991 ft | 408 kts | 181° |
| 2026-05-07 17:12 | 40.05268 | -8.53720 | 28711 ft | 411 kts | 181° |
| 2026-05-07 17:12 | 40.02421 | -8.53583 | 28431 ft | 409 kts | 180° |
| 2026-05-07 17:12 | 39.99578 | -8.53396 | 28158 ft | 408 kts | 179° |
| 2026-05-07 17:12 | 39.96734 | -8.53158 | 27895 ft | 407 kts | 179° |
| 2026-05-07 17:13 | 39.93922 | -8.52898 | 27565 ft | 405 kts | 179° |
| 2026-05-07 17:13 | 39.91115 | -8.52636 | 27157 ft | 403 kts | 179° |
| 2026-05-07 17:13 | 39.88325 | -8.52387 | 26759 ft | 400 kts | 179° |
| 2026-05-07 17:13 | 39.85552 | -8.52150 | 26358 ft | 398 kts | 179° |
| 2026-05-07 17:14 | 39.82804 | -8.51919 | 26011 ft | 394 kts | 179° |
| 2026-05-07 17:14 | 39.80111 | -8.51696 | 25841 ft | 380 kts | 179° |
| 2026-05-07 17:14 | 39.77528 | -8.51695 | 25710 ft | 363 kts | 189° |
| 2026-05-07 17:14 | 39.75120 | -8.52361 | 25509 ft | 349 kts | 201° |
| 2026-05-07 17:15 | 39.72923 | -8.53634 | 25233 ft | 344 kts | 212° |
| 2026-05-07 17:15 | 39.70888 | -8.55249 | 24955 ft | 342 kts | 213° |
| 2026-05-07 17:15 | 39.68859 | -8.56859 | 24665 ft | 341 kts | 212° |
| 2026-05-07 17:15 | 39.66837 | -8.58453 | 24380 ft | 339 kts | 212° |
| 2026-05-07 17:16 | 39.64826 | -8.60031 | 24095 ft | 338 kts | 212° |
| 2026-05-07 17:16 | 39.62816 | -8.61605 | 23813 ft | 337 kts | 212° |
| 2026-05-07 17:16 | 39.60814 | -8.63173 | 23526 ft | 335 kts | 212° |
| 2026-05-07 17:16 | 39.58825 | -8.64731 | 23198 ft | 334 kts | 212° |
| 2026-05-07 17:17 | 39.56841 | -8.66285 | 22925 ft | 332 kts | 212° |
| 2026-05-07 17:17 | 39.54864 | -8.67833 | 22645 ft | 331 kts | 212° |
| 2026-05-07 17:17 | 39.52895 | -8.69373 | 22363 ft | 330 kts | 212° |
| 2026-05-07 17:17 | 39.50937 | -8.70905 | 22084 ft | 329 kts | 212° |
| 2026-05-07 17:18 | 39.48984 | -8.72435 | 21813 ft | 327 kts | 212° |
| 2026-05-07 17:18 | 39.47048 | -8.73951 | 21540 ft | 325 kts | 212° |
| 2026-05-07 17:18 | 39.45113 | -8.75463 | 21260 ft | 324 kts | 212° |
| 2026-05-07 17:18 | 39.43187 | -8.76970 | 20988 ft | 323 kts | 212° |
| 2026-05-07 17:19 | 39.41266 | -8.78470 | 20728 ft | 321 kts | 212° |
| 2026-05-07 17:19 | 39.39483 | -8.80182 | 20451 ft | 319 kts | 224° |
| 2026-05-07 17:19 | 39.37987 | -8.82296 | 20172 ft | 318 kts | 229° |
| 2026-05-07 17:19 | 39.36541 | -8.84437 | 19903 ft | 317 kts | 228° |
| 2026-05-07 17:20 | 39.35087 | -8.86571 | 19645 ft | 316 kts | 228° |
| 2026-05-07 17:20 | 39.33635 | -8.88695 | 19379 ft | 315 kts | 228° |
| 2026-05-07 17:20 | 39.32192 | -8.90806 | 19118 ft | 314 kts | 228° |
| 2026-05-07 17:20 | 39.30751 | -8.92920 | 18855 ft | 313 kts | 228° |
| 2026-05-07 17:21 | 39.29315 | -8.95030 | 18590 ft | 312 kts | 228° |
| 2026-05-07 17:21 | 39.27883 | -8.97132 | 18327 ft | 311 kts | 228° |
| 2026-05-07 17:21 | 39.26456 | -8.99224 | 18046 ft | 310 kts | 228° |
| 2026-05-07 17:21 | 39.25031 | -9.01306 | 17772 ft | 309 kts | 228° |
| 2026-05-07 17:22 | 39.23607 | -9.03383 | 17510 ft | 308 kts | 227° |
| 2026-05-07 17:22 | 39.22194 | -9.05444 | 17274 ft | 307 kts | 228° |
| 2026-05-07 17:22 | 39.20778 | -9.07510 | 16885 ft | 307 kts | 228° |
| 2026-05-07 17:22 | 39.19371 | -9.09562 | 16490 ft | 305 kts | 227° |
| 2026-05-07 17:23 | 39.17964 | -9.11612 | 16103 ft | 305 kts | 228° |
| 2026-05-07 17:23 | 39.16564 | -9.13653 | 15724 ft | 304 kts | 227° |
| 2026-05-07 17:23 | 39.15169 | -9.15686 | 15346 ft | 301 kts | 227° |
| 2026-05-07 17:23 | 39.13790 | -9.17692 | 14971 ft | 297 kts | 227° |
| 2026-05-07 17:24 | 39.12422 | -9.19679 | 14610 ft | 296 kts | 228° |
| 2026-05-07 17:24 | 39.11058 | -9.21664 | 14238 ft | 295 kts | 227° |
| 2026-05-07 17:24 | 39.09632 | -9.23540 | 13898 ft | 292 kts | 216° |
| 2026-05-07 17:24 | 39.07877 | -9.24826 | 13618 ft | 292 kts | 207° |
| 2026-05-07 17:25 | 39.06057 | -9.25990 | 13300 ft | 291 kts | 207° |
| 2026-05-07 17:25 | 39.04244 | -9.27140 | 12988 ft | 290 kts | 206° |
| 2026-05-07 17:25 | 39.02438 | -9.28286 | 12677 ft | 289 kts | 207° |
| 2026-05-07 17:25 | 39.00636 | -9.29431 | 12361 ft | 288 kts | 206° |
| 2026-05-07 17:26 | 38.98844 | -9.30565 | 12055 ft | 287 kts | 206° |
| 2026-05-07 17:26 | 38.97054 | -9.31695 | 11769 ft | 286 kts | 206° |
| 2026-05-07 17:26 | 38.95268 | -9.32822 | 11492 ft | 286 kts | 206° |
| 2026-05-07 17:26 | 38.93488 | -9.33946 | 11219 ft | 284 kts | 206° |
| 2026-05-07 17:27 | 38.91717 | -9.35064 | 10948 ft | 283 kts | 206° |
| 2026-05-07 17:27 | 38.89953 | -9.36176 | 10677 ft | 282 kts | 206° |
| 2026-05-07 17:27 | 38.88193 | -9.37285 | 10408 ft | 281 kts | 206° |
| 2026-05-07 17:27 | 38.86434 | -9.38393 | 10139 ft | 281 kts | 206° |
| 2026-05-07 17:28 | 38.84688 | -9.39493 | 9879 ft | 280 kts | 206° |
| 2026-05-07 17:28 | 38.82941 | -9.40594 | 9590 ft | 279 kts | 206° |
| 2026-05-07 17:28 | 38.81203 | -9.41691 | 9289 ft | 278 kts | 206° |
| 2026-05-07 17:28 | 38.79448 | -9.42715 | 8997 ft | 278 kts | 197° |
| 2026-05-07 17:29 | 38.77538 | -9.42989 | 8573 ft | 278 kts | 174° |
| 2026-05-07 17:29 | 38.75699 | -9.42280 | 8085 ft | 277 kts | 157° |
| 2026-05-07 17:29 | 38.73943 | -9.41265 | 7901 ft | 277 kts | 157° |
| 2026-05-07 17:29 | 38.72191 | -9.40249 | 7919 ft | 277 kts | 156° |
| 2026-05-07 17:30 | 38.70432 | -9.39228 | 7817 ft | 279 kts | 156° |
| 2026-05-07 17:30 | 38.68652 | -9.38197 | 7206 ft | 277 kts | 156° |
| 2026-05-07 17:30 | 38.66919 | -9.37195 | 6630 ft | 271 kts | 157° |
| 2026-05-07 17:30 | 38.65756 | -9.36649 | 6175 ft | 268 kts | 166° |
| 2026-05-07 17:31 | 38.63944 | -9.36098 | 5445 ft | 267 kts | 169° |
| 2026-05-07 17:31 | 38.62125 | -9.35590 | 4705 ft | 269 kts | 169° |
| 2026-05-07 17:31 | 38.60275 | -9.35071 | 4139 ft | 265 kts | 169° |
| 2026-05-07 17:31 | 38.58576 | -9.34587 | 4012 ft | 242 kts | 169° |
| 2026-05-07 17:32 | 38.57026 | -9.34093 | 3995 ft | 218 kts | 160° |
| 2026-05-07 17:32 | 38.55783 | -9.33112 | 4009 ft | 207 kts | 135° |
| 2026-05-07 17:32 | 38.55000 | -9.31602 | 4010 ft | 204 kts | 108° |
| 2026-05-07 17:32 | 38.54806 | -9.29839 | 4012 ft | 201 kts | 81° |
| 2026-05-07 17:33 | 38.55204 | -9.28139 | 4011 ft | 196 kts | 56° |
| 2026-05-07 17:33 | 38.56074 | -9.26838 | 4013 ft | 191 kts | 33° |
| 2026-05-07 17:33 | 38.57114 | -9.25816 | 4011 ft | 192 kts | 34° |
| 2026-05-07 17:33 | 38.58170 | -9.24766 | 4010 ft | 192 kts | 33° |
| 2026-05-07 17:34 | 38.59281 | -9.23785 | 3955 ft | 190 kts | 25° |
| 2026-05-07 17:34 | 38.60467 | -9.23047 | 3758 ft | 189 kts | 19° |
| 2026-05-07 17:34 | 38.61659 | -9.22389 | 3521 ft | 190 kts | 19° |
| 2026-05-07 17:34 | 38.62898 | -9.21724 | 3276 ft | 192 kts | 18° |
| 2026-05-07 17:35 | 38.64121 | -9.21071 | 3011 ft | 187 kts | 18° |
| 2026-05-07 17:35 | 38.65286 | -9.20448 | 2783 ft | 175 kts | 19° |
| 2026-05-07 17:35 | 38.66377 | -9.19866 | 2533 ft | 165 kts | 18° |
| 2026-05-07 17:35 | 38.67418 | -9.19312 | 2328 ft | 159 kts | 18° |
| 2026-05-07 17:36 | 38.68441 | -9.18768 | 2110 ft | 159 kts | 18° |
| 2026-05-07 17:36 | 38.69465 | -9.18222 | 1892 ft | 159 kts | 17° |
| 2026-05-07 17:36 | 38.70476 | -9.17683 | 1680 ft | 156 kts | 18° |
| 2026-05-07 17:36 | 38.71490 | -9.17143 | 1460 ft | 158 kts | 18° |
| 2026-05-07 17:37 | 38.72486 | -9.16610 | 1270 ft | 152 kts | 17° |
| 2026-05-07 17:37 | 38.73436 | -9.16103 | 1019 ft | 145 kts | 16° |
| 2026-05-07 17:37 | 38.74339 | -9.15622 | 837 ft | 138 kts | 19° |
| 2026-05-07 17:37 | 38.75214 | -9.15154 | 683 ft | 135 kts | 18° |
| 2026-05-07 17:38 | 38.76082 | -9.14688 | 519 ft | 138 kts | 20° |
| 2026-05-07 17:38 | 38.76847 | -9.14272 | 364 ft | 136 kts | 20° |
| 2026-05-07 17:38 | 38.77569 | -9.13897 | 367 ft | 86 kts | 23° |
| 2026-05-07 17:38 | 38.77968 | -9.13681 | 365 ft | 43 kts | 22° |
| 2026-05-07 17:39 | 38.78227 | -9.13528 | 368 ft | 41 kts | 33° |
| 2026-05-07 17:39 | 38.78375 | -9.13324 | 362 ft | 7 kts | 96° |
| 2026-05-07 17:39 | 38.78330 | -9.13265 | 359 ft | 12 kts | 169° |
| 2026-05-07 17:39 | 38.78264 | -9.13293 | 361 ft | 11 kts | 203° |
| 2026-05-07 17:40 | 38.78207 | -9.13324 | 361 ft | 6 kts | 202° |
| 2026-05-07 17:40 | 38.78172 | -9.13343 | 359 ft | 4 kts | 203° |
| 2026-05-07 17:40 | 38.78147 | -9.13357 | 360 ft | 0 kts | 202° |
| 2026-05-07 17:40 | 38.78146 | -9.13357 | 360 ft | 0 kts | 202° |
| 2026-05-07 17:41 | 38.78142 | -9.13359 | 359 ft | 3 kts | 203° |
| 2026-05-07 17:41 | 38.78105 | -9.13380 | 358 ft | 9 kts | 203° |
| 2026-05-07 17:41 | 38.78021 | -9.13414 | 357 ft | 16 kts | 181° |
| 2026-05-07 17:41 | 38.77912 | -9.13388 | 354 ft | 18 kts | 168° |
| 2026-05-07 17:42 | 38.77827 | -9.13364 | 347 ft | 13 kts | 168° |
| 2026-05-07 17:42 | 38.77751 | -9.13344 | 347 ft | 7 kts | 168° |
| 2026-05-07 17:42 | 38.77708 | -9.13296 | 335 ft | 10 kts | 116° |
| 2026-05-07 17:42 | 38.77685 | -9.13245 | 334 ft | 5 kts | 119° |
| 2026-05-07 17:43 | 38.77671 | -9.13213 | 337 ft | 4 kts | 121° |
| 2026-05-07 17:43 | 38.77666 | -9.13201 | 335 ft | 0 kts | 121° |